Time;durP1;ratioP1;P1;durP2;ratioP2;P2;SDS_P1;SDS_P2;PMS_P1;PMS_P2;Temp;Humidity;BMP_temperature;BMP_pressure;BME280_temperature;BME280_humidity;BME280_pressure;Samples;Min_cycle;Max_cycle;Signal;HPM_P1;HPM_P2
2022/06/30 00:01:02;;;;;;;1.70;0.73;;;;;;;25.28;37.22;101067.53;6219159;23;20305;-41
2022/06/30 00:03:31;;;;;;;4.28;0.60;;;;;;;25.31;36.85;101067.56;6246104;23;20003;-41
2022/06/30 00:06:00;;;;;;;1.27;0.50;;;;;;;25.32;37.25;101065.81;6245945;23;20000;-41
2022/06/30 00:08:28;;;;;;;1.00;0.32;;;;;;;25.30;37.06;101063.19;6246086;23;20000;-41
2022/06/30 00:11:06;;;;;;;2.15;0.60;;;;;;;25.24;37.30;101067.47;6246051;23;20019;-44
2022/06/30 00:13:36;;;;;;;0.82;0.40;;;;;;;25.25;36.92;101061.34;6245766;23;20305;-49
2022/06/30 00:16:05;;;;;;;1.80;0.68;;;;;;;25.36;36.89;101064.09;6245729;23;20428;-45
2022/06/30 00:18:34;;;;;;;1.58;0.40;;;;;;;25.32;37.00;101061.41;6245567;23;20008;-41
2022/06/30 00:21:03;;;;;;;1.85;0.60;;;;;;;25.32;36.75;101058.78;6245511;23;20011;-45
2022/06/30 00:23:32;;;;;;;0.75;0.43;;;;;;;25.31;36.88;101059.69;6244367;23;20008;-43
2022/06/30 00:26:01;;;;;;;4.03;0.70;;;;;;;25.35;36.92;101057.97;6245790;23;20016;-44
2022/06/30 00:28:30;;;;;;;1.65;0.65;;;;;;;25.34;37.16;101054.44;6245478;23;20004;-44
2022/06/30 00:30:58;;;;;;;1.35;0.45;;;;;;;25.33;36.77;101050.06;6245459;23;20011;-44
2022/06/30 00:33:27;;;;;;;0.95;0.50;;;;;;;25.33;36.80;101054.44;6245709;23;20004;-45
2022/06/30 00:35:55;;;;;;;2.85;0.40;;;;;;;25.25;37.18;101053.47;6246218;23;20004;-44
2022/06/30 00:38:24;;;;;;;0.98;0.50;;;;;;;25.21;37.07;101049.94;6246041;23;20004;-43
2022/06/30 00:40:53;;;;;;;2.55;0.40;;;;;;;25.27;37.06;101052.66;6246063;23;20000;-42
2022/06/30 00:43:22;;;;;;;0.85;0.30;;;;;;;25.19;37.10;101046.44;6245678;23;20008;-42
2022/06/30 00:45:50;;;;;;;1.45;0.57;;;;;;;25.17;36.93;101049.06;6245952;23;20016;-41
2022/06/30 00:48:19;;;;;;;1.05;0.43;;;;;;;25.18;37.26;101045.56;6246279;23;20062;-45
2022/06/30 00:50:48;;;;;;;2.65;0.60;;;;;;;25.22;37.03;101049.09;6221092;23;20420;-50
2022/06/30 00:53:19;;;;;;;7.00;0.73;;;;;;;25.25;36.97;101046.50;6247846;23;20000;-44
2022/06/30 00:55:47;;;;;;;4.43;0.65;;;;;;;25.27;36.81;101052.66;6247545;23;20335;-42
2022/06/30 00:58:17;;;;;;;1.38;0.30;;;;;;;25.30;36.99;101047.44;6245695;23;20004;-41
2022/06/30 01:00:48;;;;;;;1.33;0.35;;;;;;;25.16;37.21;101043.78;6246283;23;20340;-42
2022/06/30 01:03:18;;;;;;;1.05;0.50;;;;;;;25.18;36.83;101049.91;6246159;23;20004;-43
2022/06/30 01:05:47;;;;;;;1.67;0.38;;;;;;;25.15;37.17;101039.41;6247774;23;20008;-41
2022/06/30 01:08:16;;;;;;;3.67;0.60;;;;;;;25.18;36.80;101042.94;6220718;23;20011;-41
2022/06/30 01:13:33;;;;;;;1.15;0.50;;;;;;;25.20;36.97;101049.94;6232488;23;20000;-48
2022/06/30 01:16:02;;;;;;;3.33;0.70;;;;;;;25.18;37.17;101052.53;6220993;23;20335;-45
2022/06/30 01:18:33;;;;;;;1.65;0.52;;;;;;;25.16;36.90;101043.78;6247414;23;20075;-45
2022/06/30 01:21:02;;;;;;;2.08;0.65;;;;;;;25.18;36.90;101056.06;6247594;23;20074;-46
2022/06/30 01:23:30;;;;;;;0.95;0.40;;;;;;;25.15;37.28;101053.41;6247939;23;20008;-44
2022/06/30 01:25:59;;;;;;;1.75;0.45;;;;;;;25.13;37.19;101046.41;6247540;23;20031;-44
2022/06/30 01:28:27;;;;;;;4.55;0.70;;;;;;;25.20;37.18;101050.81;6248019;23;20068;-47
2022/06/30 01:30:56;;;;;;;1.92;0.50;;;;;;;25.13;36.85;101049.88;6246982;23;20073;-49
2022/06/30 01:33:24;;;;;;;1.83;0.30;;;;;;;25.17;37.06;101054.31;6247132;23;20075;-44
2022/06/30 01:35:56;;;;;;;3.40;0.70;;;;;;;25.12;36.91;101053.38;6247650;23;20423;-45
2022/06/30 01:38:25;;;;;;;1.50;0.60;;;;;;;25.12;36.97;101050.75;6247209;23;20008;-47
2022/06/30 01:40:53;;;;;;;1.20;0.43;;;;;;;25.13;37.06;101049.88;6247485;23;20000;-43
2022/06/30 01:43:22;;;;;;;1.55;0.43;;;;;;;25.10;37.04;101055.09;6247199;23;20004;-44
2022/06/30 01:45:50;;;;;;;1.25;0.57;;;;;;;25.10;37.29;101056.84;6247124;23;20012;-43
2022/06/30 01:48:19;;;;;;;3.17;0.45;;;;;;;25.12;37.22;101044.63;6247385;23;20007;-43
2022/06/30 01:50:47;;;;;;;5.05;0.38;;;;;;;25.12;36.92;101049.88;6247408;23;20007;-46
2022/06/30 01:53:16;;;;;;;2.30;0.52;;;;;;;25.14;36.81;101045.53;6247409;23;20000;-46
2022/06/30 01:55:45;;;;;;;1.27;0.40;;;;;;;25.15;37.08;101047.28;6247798;23;20015;-44
2022/06/30 01:58:13;;;;;;;1.50;0.57;;;;;;;25.05;37.17;101045.44;6247337;23;20008;-44
2022/06/30 02:00:42;;;;;;;1.92;0.55;;;;;;;25.03;37.24;101050.69;6246840;23;20004;-44
2022/06/30 02:03:10;;;;;;;2.28;0.68;;;;;;;25.00;37.34;101040.13;6247023;23;20023;-43
2022/06/30 02:05:39;;;;;;;3.88;0.77;;;;;;;25.05;37.15;101037.56;6247025;23;20008;-45
2022/06/30 02:08:07;;;;;;;1.80;0.65;;;;;;;25.05;37.25;101037.56;6220321;23;20008;-45
2022/06/30 02:10:36;;;;;;;1.20;0.50;;;;;;;24.98;37.13;101039.25;6245945;23;20004;-49
2022/06/30 02:13:05;;;;;;;2.33;0.55;;;;;;;25.01;37.17;101041.91;6220937;23;20004;-45
2022/06/30 02:15:34;;;;;;;0.73;0.32;;;;;;;25.11;36.88;101048.13;6247231;23;20001;-45
2022/06/30 02:18:06;;;;;;;1.38;0.38;;;;;;;25.10;36.88;101044.59;6219740;23;20008;-49
2022/06/30 02:20:36;;;;;;;3.85;0.50;;;;;;;25.15;36.83;101036.78;6246652;23;20020;-43
2022/06/30 02:23:05;;;;;;;0.65;0.30;;;;;;;25.08;37.17;101037.59;6246930;23;20021;-48
2022/06/30 02:25:34;;;;;;;2.45;0.57;;;;;;;24.99;37.06;101033.13;6246787;23;20008;-44
2022/06/30 02:28:05;;;;;;;1.52;0.40;;;;;;;24.96;37.39;101038.34;6246404;23;20011;-49
2022/06/30 02:30:34;;;;;;;2.15;0.50;;;;;;;25.03;36.95;101040.19;6247136;23;20007;-44
2022/06/30 02:33:03;;;;;;;1.45;0.30;;;;;;;24.96;37.07;101036.63;6247228;23;20000;-43
2022/06/30 02:35:31;;;;;;;2.92;0.75;;;;;;;24.96;37.23;101033.09;6220589;23;20046;-47
2022/06/30 02:37:59;;;;;;;0.60;0.30;;;;;;;25.05;37.01;101037.56;6247021;23;20012;-49
2022/06/30 02:40:27;;;;;;;4.28;0.65;;;;;;;25.06;36.93;101034.06;6246022;23;20004;-44
2022/06/30 02:42:56;;;;;;;0.85;0.40;;;;;;;25.06;37.10;101040.22;6247167;23;20491;-46
2022/06/30 02:45:25;;;;;;;2.30;0.50;;;;;;;25.10;36.82;101035.84;6246767;23;20488;-46
2022/06/30 02:47:55;;;;;;;1.20;0.50;;;;;;;25.08;36.83;101040.22;6246897;23;20004;-46
2022/06/30 02:50:24;;;;;;;5.47;0.60;;;;;;;25.06;36.84;101034.97;6246548;23;20000;-43
2022/06/30 02:52:53;;;;;;;1.58;0.40;;;;;;;24.99;37.06;101043.63;6246367;23;20008;-47
2022/06/30 02:55:22;;;;;;;0.50;0.28;;;;;;;24.97;37.19;101051.50;6246386;23;20008;-44
2022/06/30 02:57:51;;;;;;;1.58;0.50;;;;;;;25.00;37.00;101051.50;6246066;23;20023;-49
2022/06/30 03:00:19;;;;;;;2.28;0.30;;;;;;;24.95;37.22;101044.44;6246641;23;20428;-45
2022/06/30 03:02:48;;;;;;;0.77;0.50;;;;;;;24.94;37.35;101045.31;6220109;23;20466;-45
2022/06/30 03:05:16;;;;;;;1.15;0.35;;;;;;;24.88;36.94;101036.53;6246359;23;20091;-43
2022/06/30 03:07:45;;;;;;;5.28;0.88;;;;;;;24.96;36.95;101044.47;6246592;23;20024;-45
2022/06/30 03:10:13;;;;;;;2.35;0.32;;;;;;;24.94;36.81;101040.97;6246517;23;20075;-47
2022/06/30 03:12:41;;;;;;;2.75;0.45;;;;;;;24.93;36.98;101014.69;6246216;23;20008;-43
2022/06/30 03:15:10;;;;;;;2.47;0.55;;;;;;;24.96;37.11;101036.63;6246654;23;20424;-48
2022/06/30 03:17:39;;;;;;;2.15;0.40;;;;;;;24.95;37.09;101032.22;6246621;23;20387;-44
2022/06/30 03:20:06;;;;;;;1.90;0.50;;;;;;;24.90;37.26;101022.56;6246501;23;20004;-44
2022/06/30 03:22:35;;;;;;;2.50;0.38;;;;;;;25.00;36.80;101027.88;6246064;23;20331;-46
2022/06/30 03:25:03;;;;;;;0.90;0.30;;;;;;;25.01;36.80;101027.00;6246369;23;20218;-48
2022/06/30 03:27:32;;;;;;;0.85;0.30;;;;;;;25.03;36.85;101025.28;6246077;23;20424;-45
2022/06/30 03:30:00;;;;;;;3.03;0.55;;;;;;;25.01;36.73;101027.00;6245851;23;20006;-49
2022/06/30 03:32:29;;;;;;;2.40;0.50;;;;;;;24.99;36.97;101030.50;6246115;23;20036;-48
2022/06/30 03:34:57;;;;;;;3.03;0.30;;;;;;;24.86;37.27;101021.63;6245987;23;20000;-47
2022/06/30 03:37:26;;;;;;;3.05;0.40;;;;;;;24.87;36.93;101031.25;6245607;23;20008;-43
2022/06/30 03:39:55;;;;;;;1.65;0.40;;;;;;;24.87;37.01;101031.25;6246458;23;20015;-44
2022/06/30 03:42:24;;;;;;;3.50;0.40;;;;;;;24.94;36.73;101027.84;6245838;23;20031;-43
2022/06/30 03:44:52;;;;;;;0.85;0.30;;;;;;;24.90;36.77;101031.28;6245412;23;20043;-44
2022/06/30 03:47:21;;;;;;;1.02;0.30;;;;;;;24.86;37.26;101026.88;6245656;23;20317;-45
2022/06/30 03:49:49;;;;;;;0.70;0.30;;;;;;;24.76;36.76;101011.91;6246164;23;20006;-44
2022/06/30 03:52:18;;;;;;;4.82;0.65;;;;;;;24.86;36.94;101029.50;6246282;23;20004;-43
2022/06/30 03:54:47;;;;;;;1.00;0.40;;;;;;;24.81;36.76;101023.34;6245897;23;20122;-44
2022/06/30 03:57:16;;;;;;;3.67;0.50;;;;;;;24.89;36.68;101037.41;6246194;23;20018;-43
2022/06/30 03:59:44;;;;;;;3.35;0.47;;;;;;;24.84;36.94;101049.59;6219331;23;20091;-43
2022/06/30 04:02:13;;;;;;;0.80;0.30;;;;;;;24.86;37.17;101038.25;6245836;23;20505;-45
2022/06/30 04:04:42;;;;;;;4.25;0.60;;;;;;;24.88;36.85;101052.28;6245634;23;20004;-46
2022/06/30 04:07:11;;;;;;;1.20;0.43;;;;;;;24.87;37.31;101053.13;6246141;23;20004;-45
2022/06/30 04:09:39;;;;;;;2.85;0.38;;;;;;;24.87;36.93;101049.63;6245429;23;20416;-49
2022/06/30 04:12:08;;;;;;;3.05;0.45;;;;;;;24.84;36.76;101055.72;6246069;23;20000;-43
2022/06/30 04:14:37;;;;;;;3.25;0.50;;;;;;;24.92;36.88;101047.03;6245592;23;20031;-48
2022/06/30 04:17:05;;;;;;;2.58;0.57;;;;;;;24.88;36.43;101046.13;6218868;23;20004;-43
2022/06/30 04:19:34;;;;;;;0.68;0.40;;;;;;;24.85;36.71;101049.63;6245976;23;20008;-49
2022/06/30 04:22:03;;;;;;;2.13;0.57;;;;;;;24.83;36.77;101046.09;6246051;23;20004;-45
2022/06/30 04:24:32;;;;;;;2.38;0.30;;;;;;;24.88;36.84;101051.38;6245707;23;20435;-46
2022/06/30 04:27:00;;;;;;;1.98;0.60;;;;;;;24.96;36.79;101047.09;6246009;23;20008;-47
2022/06/30 04:29:29;;;;;;;3.53;0.50;;;;;;;24.94;36.63;101055.81;6245282;23;20011;-43
2022/06/30 04:34:44;;;;;;;2.28;0.57;;;;;;;24.94;36.77;101056.72;6230915;23;20070;-46
2022/06/30 04:37:13;;;;;;;1.67;0.30;;;;;;;24.86;36.84;101048.75;6245718;23;20024;-44
2022/06/30 04:39:42;;;;;;;3.22;0.68;;;;;;;24.85;36.91;101052.25;6245596;23;20015;-49
2022/06/30 04:42:11;;;;;;;1.17;0.43;;;;;;;24.88;36.51;101047.03;6245918;23;20378;-44
2022/06/30 04:44:39;;;;;;;2.60;0.40;;;;;;;24.84;36.97;101057.47;6245581;23;20032;-47
2022/06/30 04:47:08;;;;;;;1.55;0.30;;;;;;;24.83;36.77;101055.69;6246537;23;20066;-43
2022/06/30 04:49:36;;;;;;;1.63;0.40;;;;;;;24.81;37.08;101045.19;6245989;23;20003;-43
2022/06/30 04:52:05;;;;;;;1.48;0.50;;;;;;;24.85;37.00;101043.47;6245808;23;20004;-44
2022/06/30 04:54:33;;;;;;;2.70;0.75;;;;;;;24.85;36.70;101047.00;6245766;23;20008;-43
2022/06/30 04:57:02;;;;;;;1.98;0.30;;;;;;;24.81;36.51;101041.69;6245287;23;20012;-46
2022/06/30 04:59:32;;;;;;;1.15;0.40;;;;;;;24.88;36.95;101040.88;6245428;23;20011;-43
2022/06/30 05:02:00;;;;;;;3.30;0.65;;;;;;;24.85;36.80;101043.47;6245737;23;20086;-45
2022/06/30 05:04:29;;;;;;;3.08;0.28;;;;;;;24.85;36.65;101041.75;6244433;23;20008;-43
2022/06/30 05:06:57;;;;;;;1.55;0.38;;;;;;;24.80;37.01;101048.69;6244002;23;20066;-48
2022/06/30 05:09:26;;;;;;;1.58;0.57;;;;;;;24.80;36.88;101042.56;6244999;23;20007;-45
2022/06/30 05:11:54;;;;;;;0.77;0.40;;;;;;;24.68;37.18;101017.91;6245641;23;20079;-45
2022/06/30 05:14:23;;;;;;;1.55;0.60;;;;;;;24.75;36.74;101047.75;6245507;23;20080;-49
2022/06/30 05:16:52;;;;;;;3.17;0.63;;;;;;;24.77;37.03;101046.00;6245673;23;20439;-53
2022/06/30 05:19:20;;;;;;;1.05;0.30;;;;;;;24.75;37.15;101047.75;6246119;23;20032;-50
2022/06/30 05:21:49;;;;;;;1.73;0.43;;;;;;;24.79;36.86;101053.91;6246151;23;20399;-45
2022/06/30 05:27:05;;;;;;;0.63;0.20;;;;;;;24.58;37.03;101023.94;6228504;23;20012;-43
2022/06/30 05:29:34;;;;;;;1.67;0.50;;;;;;;24.79;37.12;101061.78;6245102;23;20040;-44
2022/06/30 05:32:03;;;;;;;3.80;0.50;;;;;;;24.85;36.84;101056.59;6245831;23;20488;-44
2022/06/30 05:34:31;;;;;;;3.17;0.40;;;;;;;24.87;36.80;101068.88;6245278;23;20421;-43
2022/06/30 05:37:00;;;;;;;1.42;0.40;;;;;;;24.83;36.91;101068.81;6246272;23;20024;-47
2022/06/30 05:39:29;;;;;;;2.55;0.40;;;;;;;24.91;36.63;101056.66;6247053;23;20011;-43
2022/06/30 05:41:57;;;;;;;0.60;0.20;;;;;;;24.96;36.69;101059.34;6245757;23;20004;-43
2022/06/30 05:44:26;;;;;;;2.17;0.52;;;;;;;24.92;36.97;101068.03;6247548;23;20032;-44
2022/06/30 05:46:54;;;;;;;2.88;0.57;;;;;;;24.86;37.09;101063.59;6247538;23;20004;-43
2022/06/30 05:49:24;;;;;;;4.95;0.65;;;;;;;24.85;37.12;101069.72;6247189;23;20043;-43
2022/06/30 05:51:53;;;;;;;2.08;0.40;;;;;;;24.84;37.11;101074.09;6247085;23;20070;-45
2022/06/30 05:54:22;;;;;;;3.47;0.38;;;;;;;24.90;37.21;101067.16;6247182;23;20439;-47
2022/06/30 05:56:51;;;;;;;1.67;0.50;;;;;;;24.87;37.32;101065.38;6247241;23;20016;-46
2022/06/30 05:59:19;;;;;;;3.85;0.47;;;;;;;24.94;37.39;101071.56;6247331;23;20399;-45
2022/06/30 06:01:48;;;;;;;2.97;0.50;;;;;;;24.87;37.26;101062.75;6247344;23;20004;-47
2022/06/30 06:04:16;;;;;;;3.80;0.40;;;;;;;24.80;37.35;101058.31;6247234;23;20012;-44
2022/06/30 06:06:45;;;;;;;2.15;0.52;;;;;;;24.87;37.26;101060.13;6246989;23;20036;-49
2022/06/30 06:09:13;;;;;;;2.22;0.73;;;;;;;24.85;37.33;101051.34;6219872;23;20340;-45
2022/06/30 06:11:42;;;;;;;3.65;0.73;;;;;;;24.88;37.58;101056.63;6247281;23;20000;-46
2022/06/30 06:14:11;;;;;;;5.78;0.68;;;;;;;24.89;37.38;101058.41;6246734;23;20004;-43
2022/06/30 06:16:39;;;;;;;1.75;0.47;;;;;;;24.96;37.33;101064.59;6247166;23;20004;-49
2022/06/30 06:19:08;;;;;;;4.72;0.70;;;;;;;24.97;37.29;101072.50;6246599;23;20058;-43
2022/06/30 06:21:37;;;;;;;1.15;0.55;;;;;;;24.99;37.50;101073.34;6246667;23;20030;-49
2022/06/30 06:24:05;;;;;;;2.05;0.47;;;;;;;25.02;37.47;101062.03;6247086;23;20039;-44
2022/06/30 06:26:34;;;;;;;8.45;0.70;;;;;;;24.99;37.31;101067.25;6247022;23;20036;-46
2022/06/30 06:29:06;;;;;;;1.73;0.50;;;;;;;25.02;37.28;101073.41;6246863;23;20004;-45
2022/06/30 06:31:34;;;;;;;2.90;0.70;;;;;;;24.97;37.28;101071.59;6246595;23;20004;-46
2022/06/30 06:34:02;;;;;;;2.65;0.90;;;;;;;25.03;37.50;101074.28;6246211;23;20031;-48
2022/06/30 06:36:32;;;;;;;4.75;0.70;;;;;;;25.07;37.71;101075.19;6246266;23;20008;-43
2022/06/30 06:39:00;;;;;;;2.58;0.50;;;;;;;25.02;37.74;101073.41;6246557;23;20034;-49
2022/06/30 06:41:29;;;;;;;6.47;1.13;;;;;;;25.11;37.23;101069.97;6246375;23;20011;-46
2022/06/30 06:43:58;;;;;;;4.18;0.55;;;;;;;25.15;37.59;101076.16;6246421;23;20039;-52
2022/06/30 06:46:27;;;;;;;3.63;0.68;;;;;;;25.11;37.35;101083.13;6246507;23;20035;-44
2022/06/30 06:48:57;;;;;;;4.72;0.80;;;;;;;25.12;37.33;101077.00;6247080;23;20000;-46
2022/06/30 06:51:25;;;;;;;4.10;0.95;;;;;;;25.16;37.53;101077.91;6246486;23;20430;-48
2022/06/30 06:53:54;;;;;;;2.75;0.68;;;;;;;25.14;37.64;101079.66;6247010;23;20096;-51
2022/06/30 06:56:23;;;;;;;2.70;0.65;;;;;;;25.13;37.68;101093.66;6210296;23;20044;-49
2022/06/30 06:58:51;;;;;;;2.15;0.75;;;;;;;25.18;37.59;101087.56;6186434;23;20078;-50
2022/06/30 07:01:20;;;;;;;3.75;0.70;;;;;;;25.09;37.69;101066.47;6186400;23;20000;-44
2022/06/30 07:03:48;;;;;;;4.72;0.95;;;;;;;25.31;37.33;101090.31;6184664;23;20001;-53
2022/06/30 07:06:15;;;;;;;5.20;0.80;;;;;;;25.25;37.63;101088.50;6186310;23;20015;-48
2022/06/30 07:08:44;;;;;;;1.88;0.60;;;;;;;25.25;37.74;101090.22;6185742;23;20072;-45
2022/06/30 07:11:12;;;;;;;2.95;0.88;;;;;;;25.24;37.78;101093.72;6184386;23;20429;-44
2022/06/30 07:13:41;;;;;;;3.63;0.85;;;;;;;25.29;37.73;101094.66;6186220;23;20005;-52
2022/06/30 07:16:09;;;;;;;2.08;0.60;;;;;;;25.29;37.69;101092.94;6186571;23;20012;-46
2022/06/30 07:18:36;;;;;;;3.00;0.60;;;;;;;25.34;37.45;101085.94;6186019;23;20341;-45
2022/06/30 07:21:05;;;;;;;5.80;0.60;;;;;;;25.47;37.33;101092.25;6185830;23;20010;-43
2022/06/30 07:23:32;;;;;;;4.07;0.80;;;;;;;25.48;37.51;101094.00;6186152;23;20148;-45
2022/06/30 07:26:01;;;;;;;3.70;0.75;;;;;;;25.40;37.75;101095.63;6185960;23;20016;-43
2022/06/30 07:28:30;;;;;;;1.75;0.65;;;;;;;25.43;37.59;101097.47;6184435;23;20393;-43
2022/06/30 07:30:58;;;;;;;5.18;0.73;;;;;;;25.54;37.65;101101.03;6185877;23;20001;-43
2022/06/30 07:33:27;;;;;;;2.25;0.60;;;;;;;25.57;37.73;101097.56;6186085;23;20048;-42
2022/06/30 07:35:55;;;;;;;4.53;0.90;;;;;;;25.66;37.61;101105.53;6136036;23;20007;-41
2022/06/30 07:38:24;;;;;;;2.28;0.63;;;;;;;25.66;37.51;101099.38;6185740;23;20075;-41
2022/06/30 07:40:53;;;;;;;3.88;0.77;;;;;;;25.74;37.62;101097.72;6159961;23;20012;-42
2022/06/30 07:43:21;;;;;;;5.32;0.80;;;;;;;25.76;37.74;101109.09;6186263;23;20033;-41
2022/06/30 07:45:51;;;;;;;1.80;0.55;;;;;;;25.75;37.75;101094.22;6186035;23;20013;-40
2022/06/30 07:48:20;;;;;;;3.10;0.70;;;;;;;25.83;37.15;101100.38;6186382;23;20023;-44
2022/06/30 07:50:49;;;;;;;2.35;0.80;;;;;;;25.90;37.41;101120.59;6184353;23;20001;-44
2022/06/30 07:53:17;;;;;;;5.15;0.90;;;;;;;25.79;37.34;101088.97;6209191;23;20016;-44
2022/06/30 07:55:46;;;;;;;4.90;0.80;;;;;;;25.93;37.25;101106.59;6185521;23;20388;-41
2022/06/30 07:58:15;;;;;;;3.60;1.08;;;;;;;25.99;37.23;101109.28;6159476;23;20024;-41
2022/06/30 08:00:44;;;;;;;2.30;0.75;;;;;;;26.00;37.25;101118.94;6184290;23;20302;-42
2022/06/30 08:03:12;;;;;;;1.67;0.68;;;;;;;26.04;37.37;101115.44;6185643;23;20005;-41
2022/06/30 08:05:41;;;;;;;2.17;0.60;;;;;;;26.01;37.17;101104.00;6186197;23;20031;-42
2022/06/30 08:08:09;;;;;;;3.40;0.80;;;;;;;26.16;37.07;101125.19;6185888;23;20068;-41
2022/06/30 08:10:38;;;;;;;2.75;0.68;;;;;;;26.16;37.07;101117.28;6185639;23;20314;-41
2022/06/30 08:13:07;;;;;;;2.20;0.60;;;;;;;26.21;37.30;101109.44;6159439;23;20036;-41
2022/06/30 08:15:36;;;;;;;2.33;0.65;;;;;;;26.24;36.65;101112.97;6184023;23;20009;-44
2022/06/30 08:18:05;;;;;;;1.65;0.63;;;;;;;26.30;36.84;101121.78;6184049;23;20433;-42
2022/06/30 08:20:34;;;;;;;2.85;0.70;;;;;;;26.29;36.98;101118.25;6208652;23;20009;-42
2022/06/30 08:23:03;;;;;;;1.27;0.40;;;;;;;26.36;36.80;101134.94;6209074;23;20009;-41
2022/06/30 08:25:32;;;;;;;3.45;0.80;;;;;;;26.38;36.86;101122.69;6183909;23;20012;-41
2022/06/30 08:28:01;;;;;;;1.38;0.63;;;;;;;26.39;36.57;101119.19;6184231;23;20310;-42
2022/06/30 08:30:30;;;;;;;1.35;0.50;;;;;;;26.51;36.58;101127.13;6185548;23;20005;-44
2022/06/30 08:32:59;;;;;;;3.05;0.80;;;;;;;26.53;36.41;101121.88;6185338;23;20008;-41
2022/06/30 08:35:27;;;;;;;1.63;0.70;;;;;;;26.64;36.37;101125.44;6185687;23;20044;-41
2022/06/30 08:37:56;;;;;;;2.63;0.68;;;;;;;26.66;36.16;101123.69;6184259;23;20001;-41
2022/06/30 08:43:13;;;;;;;1.05;0.45;;;;;;;26.72;36.42;101119.34;6179213;23;20020;-41
2022/06/30 08:45:43;;;;;;;1.92;0.75;;;;;;;26.74;36.32;101112.31;6185015;23;20424;-41
2022/06/30 08:48:11;;;;;;;2.50;0.93;;;;;;;26.68;36.34;101121.06;6159845;23;20009;-41
2022/06/30 08:50:40;;;;;;;1.58;0.70;;;;;;;26.66;36.59;101122.81;6184085;23;20103;-41
2022/06/30 08:53:09;;;;;;;1.98;0.65;;;;;;;26.49;36.33;101094.66;6185317;23;20444;-42
2022/06/30 08:55:39;;;;;;;1.92;0.90;;;;;;;26.78;36.21;101120.25;6159826;23;20001;-43
2022/06/30 08:58:07;;;;;;;3.63;1.00;;;;;;;26.79;36.15;101123.75;6240892;23;20081;-43
2022/06/30 09:00:38;;;;;;;2.15;0.60;;;;;;;26.84;36.26;101117.63;6219116;23;20023;-42
2022/06/30 09:03:07;;;;;;;2.92;0.80;;;;;;;26.85;35.98;101121.16;6246069;23;20000;-42
2022/06/30 09:05:35;;;;;;;1.67;0.60;;;;;;;26.80;36.22;101126.44;6218797;23;20066;-41
2022/06/30 09:08:03;;;;;;;3.65;0.80;;;;;;;26.84;36.05;101127.31;6218726;23;20062;-42
2022/06/30 09:10:32;;;;;;;2.58;0.70;;;;;;;26.85;36.11;101126.44;6245784;23;20030;-42
2022/06/30 09:13:03;;;;;;;2.13;0.70;;;;;;;26.67;36.35;101106.13;6220739;23;20379;-42
2022/06/30 09:15:33;;;;;;;2.25;0.85;;;;;;;26.80;36.08;101117.63;6247798;23;20004;-46
2022/06/30 09:18:01;;;;;;;4.13;0.80;;;;;;;26.78;36.25;101119.34;6220785;23;20004;-42
2022/06/30 09:20:40;;;;;;;3.40;1.13;;;;;;;26.91;36.31;101133.47;6247588;23;20083;-43
2022/06/30 09:23:29;;;;;;;3.67;1.73;;;;;;;26.89;36.17;101127.31;6246368;23;20007;-46
2022/06/30 09:26:01;;;;;;;1.70;0.60;;;;;;;26.91;36.30;101134.34;6247472;23;20061;-42
2022/06/30 09:28:54;;;;;;;3.17;0.77;;;;;;;26.93;36.05;101139.63;6247503;23;20012;-42
2022/06/30 09:31:43;;;;;;;1.58;0.55;;;;;;;26.94;36.35;101138.75;6221217;23;20011;-42
2022/06/30 09:34:21;;;;;;;6.80;1.10;;;;;;;26.91;36.18;101128.19;6248214;23;20004;-42
2022/06/30 09:36:52;;;;;;;4.75;0.85;;;;;;;26.99;36.01;101135.25;6247822;23;20374;-42
2022/06/30 09:39:22;;;;;;;2.65;0.70;;;;;;;26.96;36.01;101132.59;6220317;23;20344;-42
2022/06/30 09:41:53;;;;;;;2.50;0.68;;;;;;;26.97;35.78;101139.63;6246585;23;20009;-42
2022/06/30 09:44:23;;;;;;;4.50;0.57;;;;;;;27.02;35.89;101144.03;6221065;23;20042;-43
2022/06/30 09:47:02;;;;;;;4.80;1.02;;;;;;;27.00;35.93;101146.66;6247090;23;20022;-44
2022/06/30 09:49:50;;;;;;;1.88;0.77;;;;;;;26.93;35.94;101132.59;6246004;23;20005;-42
2022/06/30 09:52:23;;;;;;;2.10;0.70;;;;;;;27.05;35.99;101152.81;6220572;23;20004;-42
2022/06/30 09:55:12;;;;;;;2.50;0.75;;;;;;;26.99;35.75;101160.69;6247061;23;20019;-42
2022/06/30 09:57:44;;;;;;;2.55;1.02;;;;;;;26.98;35.78;101156.28;6247536;23;20016;-42
2022/06/30 10:00:15;;;;;;;3.58;1.00;;;;;;;26.89;35.93;101149.25;6247112;23;20008;-42
2022/06/30 10:02:48;;;;;;;4.53;0.90;;;;;;;26.91;35.84;101146.63;6247341;23;20498;-44
2022/06/30 10:05:19;;;;;;;4.38;1.10;;;;;;;27.00;35.71;101154.53;6196163;23;20083;-42
2022/06/30 10:07:48;;;;;;;2.28;0.70;;;;;;;26.99;35.93;101160.69;6247267;23;20008;-44
2022/06/30 10:10:17;;;;;;;3.08;0.88;;;;;;;26.95;35.96;101153.66;6245555;23;19996;-42
2022/06/30 10:12:46;;;;;;;2.65;0.65;;;;;;;26.99;35.86;101158.94;6195524;23;20019;-44
2022/06/30 10:15:16;;;;;;;2.17;0.80;;;;;;;26.94;35.87;101163.31;6245664;23;20037;-45
2022/06/30 10:17:48;;;;;;;2.30;0.52;;;;;;;26.91;36.08;101165.06;6247055;23;20007;-44
2022/06/30 10:20:16;;;;;;;3.05;0.77;;;;;;;26.93;35.78;101165.94;6219842;23;20012;-42
2022/06/30 10:22:45;;;;;;;1.63;0.60;;;;;;;26.91;35.77;101154.53;6245471;23;20054;-43
2022/06/30 10:25:14;;;;;;;3.90;1.05;;;;;;;26.89;35.84;101158.91;6220331;23;20036;-44
2022/06/30 10:27:44;;;;;;;2.00;0.63;;;;;;;26.94;36.09;101163.31;6246819;23;20070;-42
2022/06/30 10:30:16;;;;;;;2.63;1.05;;;;;;;26.92;35.98;101169.44;6195520;23;20004;-42
2022/06/30 10:33:04;;;;;;;4.80;0.60;;;;;;;26.95;35.89;101166.84;6220253;23;20012;-42
2022/06/30 10:35:38;;;;;;;4.40;0.77;;;;;;;26.97;35.89;101151.94;6246198;23;20074;-43
2022/06/30 10:38:26;;;;;;;1.90;0.75;;;;;;;27.02;35.95;101163.34;6220203;23;20004;-43
2022/06/30 10:41:14;;;;;;;4.05;0.73;;;;;;;26.95;35.89;101177.38;6242041;23;20007;-42
2022/06/30 10:44:05;;;;;;;2.75;0.70;;;;;;;26.96;35.86;101168.59;6247332;23;20066;-43
2022/06/30 10:46:34;;;;;;;4.30;1.00;;;;;;;26.96;35.78;101158.06;6238452;23;20328;-42
2022/06/30 10:49:10;;;;;;;1.95;0.85;;;;;;;27.02;35.84;101168.59;6246734;23;20004;-42
2022/06/30 10:51:38;;;;;;;3.03;0.70;;;;;;;26.99;35.69;101169.47;6195921;23;20004;-43
2022/06/30 10:54:08;;;;;;;1.33;0.55;;;;;;;27.01;35.48;101164.19;6220221;23;20026;-43
2022/06/30 10:56:56;;;;;;;3.45;0.82;;;;;;;27.00;35.79;101175.59;6245600;23;20012;-44
2022/06/30 10:59:41;;;;;;;2.47;0.68;;;;;;;27.02;35.76;101180.91;6246468;23;20008;-42
2022/06/30 11:02:10;;;;;;;2.70;0.82;;;;;;;27.03;35.78;101185.28;6247065;23;20008;-48
2022/06/30 11:04:40;;;;;;;2.70;0.68;;;;;;;26.98;35.71;101178.25;6219807;23;20392;-44
2022/06/30 11:07:09;;;;;;;1.77;0.57;;;;;;;27.03;35.58;101180.88;6244136;23;20309;-42
2022/06/30 11:09:47;;;;;;;1.42;0.50;;;;;;;27.03;35.59;101186.16;6219439;23;20008;-43
2022/06/30 11:12:17;;;;;;;2.70;0.68;;;;;;;27.05;35.75;101189.69;6246448;23;20419;-43
2022/06/30 11:14:52;;;;;;;4.78;0.77;;;;;;;27.03;35.65;101195.81;6246472;23;20435;-42
2022/06/30 11:17:23;;;;;;;2.03;0.85;;;;;;;27.07;35.65;101194.94;6246316;23;20004;-44
2022/06/30 11:20:07;;;;;;;4.13;0.93;;;;;;;27.05;35.55;101184.41;6245324;23;20432;-45
2022/06/30 11:22:35;;;;;;;3.10;0.95;;;;;;;27.00;35.50;101165.06;6244984;23;20375;-46
2022/06/30 11:25:07;;;;;;;2.53;0.63;;;;;;;27.18;35.19;101187.06;6246438;23;20000;-42
2022/06/30 11:27:37;;;;;;;2.65;0.77;;;;;;;27.13;35.26;101176.53;6244714;23;20443;-42
2022/06/30 11:30:06;;;;;;;2.50;0.52;;;;;;;27.13;35.31;101181.81;6246180;23;20007;-42
2022/06/30 11:32:35;;;;;;;3.20;0.63;;;;;;;27.13;35.50;101185.34;6245826;23;20033;-42
2022/06/30 11:35:04;;;;;;;2.13;0.70;;;;;;;27.18;35.61;101189.72;6246139;23;20000;-42
2022/06/30 11:37:34;;;;;;;2.92;0.77;;;;;;;27.18;35.29;101187.97;6246062;23;20015;-43
2022/06/30 11:40:06;;;;;;;1.75;0.70;;;;;;;27.15;35.26;101175.66;6245939;23;19996;-43
2022/06/30 11:42:35;;;;;;;2.22;0.50;;;;;;;27.18;35.39;101180.06;6246388;23;20039;-43
2022/06/30 11:45:20;;;;;;;2.58;0.70;;;;;;;27.25;35.27;101176.56;6245841;23;20008;-43
2022/06/30 11:47:54;;;;;;;1.05;0.57;;;;;;;27.19;35.51;101180.94;6245076;23;20004;-44